sensor_id;sensor_type;location;lat;lon;timestamp;temperature;humidity
42333;DHT22;27984;51.476;5.702;2023-02-03T00:01:21;8.90;99.90
42333;DHT22;27984;51.476;5.702;2023-02-03T00:03:48;8.90;99.90
42333;DHT22;27984;51.476;5.702;2023-02-03T00:06:13;8.90;99.90
42333;DHT22;27984;51.476;5.702;2023-02-03T00:08:39;8.90;99.90
42333;DHT22;27984;51.476;5.702;2023-02-03T00:11:05;8.90;99.90
42333;DHT22;27984;51.476;5.702;2023-02-03T00:13:31;9.00;99.90
42333;DHT22;27984;51.476;5.702;2023-02-03T00:15:56;8.90;99.90
42333;DHT22;27984;51.476;5.702;2023-02-03T00:18:22;9.00;99.90
42333;DHT22;27984;51.476;5.702;2023-02-03T00:20:47;8.90;99.90
42333;DHT22;27984;51.476;5.702;2023-02-03T00:23:13;8.90;99.90
42333;DHT22;27984;51.476;5.702;2023-02-03T00:25:39;8.90;99.90
42333;DHT22;27984;51.476;5.702;2023-02-03T00:28:04;9.00;99.90
42333;DHT22;27984;51.476;5.702;2023-02-03T00:30:32;9.00;99.90
42333;DHT22;27984;51.476;5.702;2023-02-03T00:32:58;8.90;99.90
42333;DHT22;27984;51.476;5.702;2023-02-03T00:35:23;8.90;99.90
42333;DHT22;27984;51.476;5.702;2023-02-03T00:37:53;9.00;99.90
42333;DHT22;27984;51.476;5.702;2023-02-03T00:40:20;9.00;99.90
42333;DHT22;27984;51.476;5.702;2023-02-03T00:42:46;9.00;99.90
42333;DHT22;27984;51.476;5.702;2023-02-03T00:45:12;9.00;99.90
42333;DHT22;27984;51.476;5.702;2023-02-03T00:47:37;9.00;99.90
42333;DHT22;27984;51.476;5.702;2023-02-03T00:50:04;9.00;99.90
42333;DHT22;27984;51.476;5.702;2023-02-03T00:52:30;9.00;99.90
42333;DHT22;27984;51.476;5.702;2023-02-03T00:54:56;9.00;99.90
42333;DHT22;27984;51.476;5.702;2023-02-03T00:57:21;9.10;99.90
42333;DHT22;27984;51.476;5.702;2023-02-03T00:59:47;9.00;99.90
42333;DHT22;27984;51.476;5.702;2023-02-03T01:02:12;9.00;99.90
42333;DHT22;27984;51.476;5.702;2023-02-03T01:04:38;9.00;99.90
42333;DHT22;27984;51.476;5.702;2023-02-03T01:07:04;9.00;99.90
42333;DHT22;27984;51.476;5.702;2023-02-03T01:09:33;9.00;99.90
42333;DHT22;27984;51.476;5.702;2023-02-03T01:11:59;9.10;99.90
42333;DHT22;27984;51.476;5.702;2023-02-03T01:14:24;9.10;99.90
42333;DHT22;27984;51.476;5.702;2023-02-03T01:16:50;9.10;99.90
42333;DHT22;27984;51.476;5.702;2023-02-03T01:19:15;9.10;99.90
42333;DHT22;27984;51.476;5.702;2023-02-03T01:21:41;9.10;99.90
42333;DHT22;27984;51.476;5.702;2023-02-03T01:24:07;9.20;99.90
42333;DHT22;27984;51.476;5.702;2023-02-03T01:26:34;9.20;99.90
42333;DHT22;27984;51.476;5.702;2023-02-03T01:29:00;9.20;99.90
42333;DHT22;27984;51.476;5.702;2023-02-03T01:31:31;9.20;99.90
42333;DHT22;27984;51.476;5.702;2023-02-03T01:34:01;9.20;99.90
42333;DHT22;27984;51.476;5.702;2023-02-03T01:36:28;9.20;99.90
42333;DHT22;27984;51.476;5.702;2023-02-03T01:38:57;9.20;99.90
42333;DHT22;27984;51.476;5.702;2023-02-03T01:41:26;9.30;99.90
42333;DHT22;27984;51.476;5.702;2023-02-03T01:43:54;9.20;99.90
42333;DHT22;27984;51.476;5.702;2023-02-03T01:46:34;9.20;99.90
42333;DHT22;27984;51.476;5.702;2023-02-03T01:49:07;9.20;99.90
42333;DHT22;27984;51.476;5.702;2023-02-03T01:51:37;9.20;99.90
42333;DHT22;27984;51.476;5.702;2023-02-03T01:54:03;9.20;99.90
42333;DHT22;27984;51.476;5.702;2023-02-03T01:56:31;9.20;99.90
42333;DHT22;27984;51.476;5.702;2023-02-03T01:58:57;9.20;99.90
42333;DHT22;27984;51.476;5.702;2023-02-03T02:01:24;9.20;99.90
42333;DHT22;27984;51.476;5.702;2023-02-03T02:03:55;9.20;99.90
42333;DHT22;27984;51.476;5.702;2023-02-03T02:06:21;9.20;99.90
42333;DHT22;27984;51.476;5.702;2023-02-03T02:08:49;9.20;99.90
42333;DHT22;27984;51.476;5.702;2023-02-03T02:11:16;9.20;99.90
42333;DHT22;27984;51.476;5.702;2023-02-03T02:13:44;9.20;99.90
42333;DHT22;27984;51.476;5.702;2023-02-03T02:16:27;9.20;99.90
42333;DHT22;27984;51.476;5.702;2023-02-03T02:18:59;9.20;99.90
42333;DHT22;27984;51.476;5.702;2023-02-03T02:24:39;9.20;99.90
42333;DHT22;27984;51.476;5.702;2023-02-03T02:35:53;9.10;99.90
42333;DHT22;27984;51.476;5.702;2023-02-03T02:38:36;9.10;99.90
42333;DHT22;27984;51.476;5.702;2023-02-03T02:44:08;9.20;99.90
42333;DHT22;27984;51.476;5.702;2023-02-03T02:46:40;9.20;99.90
42333;DHT22;27984;51.476;5.702;2023-02-03T02:49:59;9.20;99.90
42333;DHT22;27984;51.476;5.702;2023-02-03T02:52:05;9.20;99.90
42333;DHT22;27984;51.476;5.702;2023-02-03T02:54:35;9.20;99.90
42333;DHT22;27984;51.476;5.702;2023-02-03T02:57:03;9.20;99.90
42333;DHT22;27984;51.476;5.702;2023-02-03T02:59:31;9.20;99.90
42333;DHT22;27984;51.476;5.702;2023-02-03T03:01:56;9.20;99.90
42333;DHT22;27984;51.476;5.702;2023-02-03T03:04:27;9.20;99.90
42333;DHT22;27984;51.476;5.702;2023-02-03T03:06:59;9.20;99.90
42333;DHT22;27984;51.476;5.702;2023-02-03T03:09:33;9.20;99.90
42333;DHT22;27984;51.476;5.702;2023-02-03T03:12:15;9.20;99.90
42333;DHT22;27984;51.476;5.702;2023-02-03T03:14:49;9.20;99.90
42333;DHT22;27984;51.476;5.702;2023-02-03T03:17:27;9.20;99.90
42333;DHT22;27984;51.476;5.702;2023-02-03T03:19:56;9.20;99.90
42333;DHT22;27984;51.476;5.702;2023-02-03T03:22:27;9.20;99.90
42333;DHT22;27984;51.476;5.702;2023-02-03T03:25:02;9.20;99.90
42333;DHT22;27984;51.476;5.702;2023-02-03T03:27:33;9.20;99.90
42333;DHT22;27984;51.476;5.702;2023-02-03T03:30:34;9.30;99.90
42333;DHT22;27984;51.476;5.702;2023-02-03T03:33:00;9.20;99.90
42333;DHT22;27984;51.476;5.702;2023-02-03T03:35:31;9.30;99.90
42333;DHT22;27984;51.476;5.702;2023-02-03T03:38:16;9.20;99.90
42333;DHT22;27984;51.476;5.702;2023-02-03T03:40:50;9.30;99.90
42333;DHT22;27984;51.476;5.702;2023-02-03T03:43:20;9.30;99.90
42333;DHT22;27984;51.476;5.702;2023-02-03T03:45:57;9.30;99.90
42333;DHT22;27984;51.476;5.702;2023-02-03T03:48:39;9.30;99.90
42333;DHT22;27984;51.476;5.702;2023-02-03T03:51:15;9.40;99.90
42333;DHT22;27984;51.476;5.702;2023-02-03T03:53:43;9.40;99.90
42333;DHT22;27984;51.476;5.702;2023-02-03T03:56:16;9.40;99.90
42333;DHT22;27984;51.476;5.702;2023-02-03T03:58:46;9.40;99.90
42333;DHT22;27984;51.476;5.702;2023-02-03T04:01:17;9.40;99.90
42333;DHT22;27984;51.476;5.702;2023-02-03T04:03:47;9.40;99.90
42333;DHT22;27984;51.476;5.702;2023-02-03T04:06:14;9.40;99.90
42333;DHT22;27984;51.476;5.702;2023-02-03T04:08:39;9.40;99.90
42333;DHT22;27984;51.476;5.702;2023-02-03T04:11:05;9.50;99.90
42333;DHT22;27984;51.476;5.702;2023-02-03T04:13:31;9.50;99.90
42333;DHT22;27984;51.476;5.702;2023-02-03T04:15:57;9.40;99.90
42333;DHT22;27984;51.476;5.702;2023-02-03T04:18:23;9.50;99.90
42333;DHT22;27984;51.476;5.702;2023-02-03T04:20:48;9.50;99.90
42333;DHT22;27984;51.476;5.702;2023-02-03T04:23:14;9.40;99.90
42333;DHT22;27984;51.476;5.702;2023-02-03T04:25:40;9.50;99.90
42333;DHT22;27984;51.476;5.702;2023-02-03T04:28:05;9.50;99.90
42333;DHT22;27984;51.476;5.702;2023-02-03T04:30:31;9.50;99.90
42333;DHT22;27984;51.476;5.702;2023-02-03T04:32:57;9.50;99.90
42333;DHT22;27984;51.476;5.702;2023-02-03T04:35:22;9.50;99.90
42333;DHT22;27984;51.476;5.702;2023-02-03T04:37:48;9.40;99.90
42333;DHT22;27984;51.476;5.702;2023-02-03T04:40:14;9.50;99.90
42333;DHT22;27984;51.476;5.702;2023-02-03T04:42:40;9.40;99.90
42333;DHT22;27984;51.476;5.702;2023-02-03T04:45:07;9.40;99.90
42333;DHT22;27984;51.476;5.702;2023-02-03T04:47:33;9.50;99.90
42333;DHT22;27984;51.476;5.702;2023-02-03T04:49:58;9.40;99.90
42333;DHT22;27984;51.476;5.702;2023-02-03T04:52:24;9.40;99.90
42333;DHT22;27984;51.476;5.702;2023-02-03T04:54:50;9.50;99.90
42333;DHT22;27984;51.476;5.702;2023-02-03T04:57:15;9.50;99.90
42333;DHT22;27984;51.476;5.702;2023-02-03T04:59:41;9.50;99.90
42333;DHT22;27984;51.476;5.702;2023-02-03T05:02:06;9.50;99.90
42333;DHT22;27984;51.476;5.702;2023-02-03T05:04:33;9.50;99.90
42333;DHT22;27984;51.476;5.702;2023-02-03T05:06:58;9.50;99.90
42333;DHT22;27984;51.476;5.702;2023-02-03T05:09:24;9.50;99.90
42333;DHT22;27984;51.476;5.702;2023-02-03T05:11:50;9.50;99.90
42333;DHT22;27984;51.476;5.702;2023-02-03T05:14:16;9.50;99.90
42333;DHT22;27984;51.476;5.702;2023-02-03T05:16:41;9.50;99.90
42333;DHT22;27984;51.476;5.702;2023-02-03T05:19:07;9.50;99.90
42333;DHT22;27984;51.476;5.702;2023-02-03T05:21:33;9.50;99.90
42333;DHT22;27984;51.476;5.702;2023-02-03T05:23:58;9.40;99.90
42333;DHT22;27984;51.476;5.702;2023-02-03T05:26:24;9.50;99.90
42333;DHT22;27984;51.476;5.702;2023-02-03T05:28:50;9.50;99.90
42333;DHT22;27984;51.476;5.702;2023-02-03T05:31:15;9.50;99.90
42333;DHT22;27984;51.476;5.702;2023-02-03T05:33:41;9.50;99.90
42333;DHT22;27984;51.476;5.702;2023-02-03T05:36:07;9.50;99.90
42333;DHT22;27984;51.476;5.702;2023-02-03T05:38:33;9.50;99.90
42333;DHT22;27984;51.476;5.702;2023-02-03T05:40:58;9.60;99.90
42333;DHT22;27984;51.476;5.702;2023-02-03T05:43:42;9.50;99.90
42333;DHT22;27984;51.476;5.702;2023-02-03T05:46:08;9.60;99.90
42333;DHT22;27984;51.476;5.702;2023-02-03T05:48:34;9.50;99.90
42333;DHT22;27984;51.476;5.702;2023-02-03T05:50:59;9.60;99.90
42333;DHT22;27984;51.476;5.702;2023-02-03T05:53:25;9.60;99.90
42333;DHT22;27984;51.476;5.702;2023-02-03T05:55:51;9.60;99.90
42333;DHT22;27984;51.476;5.702;2023-02-03T05:58:17;9.60;99.90
42333;DHT22;27984;51.476;5.702;2023-02-03T06:00:42;9.60;99.90
42333;DHT22;27984;51.476;5.702;2023-02-03T06:03:08;9.50;99.90
42333;DHT22;27984;51.476;5.702;2023-02-03T06:05:34;9.60;99.90
42333;DHT22;27984;51.476;5.702;2023-02-03T06:08:02;9.60;99.90
42333;DHT22;27984;51.476;5.702;2023-02-03T06:10:27;9.60;99.90
42333;DHT22;27984;51.476;5.702;2023-02-03T06:12:53;9.50;99.90
42333;DHT22;27984;51.476;5.702;2023-02-03T06:15:18;9.50;99.90
42333;DHT22;27984;51.476;5.702;2023-02-03T06:17:45;9.60;99.90
42333;DHT22;27984;51.476;5.702;2023-02-03T06:20:13;9.60;99.90
42333;DHT22;27984;51.476;5.702;2023-02-03T06:22:39;9.60;99.90
42333;DHT22;27984;51.476;5.702;2023-02-03T06:25:05;9.60;99.90
42333;DHT22;27984;51.476;5.702;2023-02-03T06:27:30;9.60;99.90
42333;DHT22;27984;51.476;5.702;2023-02-03T06:29:56;9.60;99.90
42333;DHT22;27984;51.476;5.702;2023-02-03T06:32:21;9.60;99.90
42333;DHT22;27984;51.476;5.702;2023-02-03T06:34:47;9.60;99.90
42333;DHT22;27984;51.476;5.702;2023-02-03T06:37:13;9.60;99.90
42333;DHT22;27984;51.476;5.702;2023-02-03T06:39:41;9.70;99.90
42333;DHT22;27984;51.476;5.702;2023-02-03T06:42:06;9.60;99.90
42333;DHT22;27984;51.476;5.702;2023-02-03T06:44:32;9.70;99.90
42333;DHT22;27984;51.476;5.702;2023-02-03T06:46:57;9.60;99.90
42333;DHT22;27984;51.476;5.702;2023-02-03T06:49:23;9.70;99.90
42333;DHT22;27984;51.476;5.702;2023-02-03T06:51:49;9.70;99.90
42333;DHT22;27984;51.476;5.702;2023-02-03T06:54:16;9.70;99.90
42333;DHT22;27984;51.476;5.702;2023-02-03T06:56:42;9.60;99.90
42333;DHT22;27984;51.476;5.702;2023-02-03T06:59:07;9.70;99.90
42333;DHT22;27984;51.476;5.702;2023-02-03T07:01:35;9.70;99.90
42333;DHT22;27984;51.476;5.702;2023-02-03T07:04:00;9.70;99.90
42333;DHT22;27984;51.476;5.702;2023-02-03T07:06:27;9.70;99.90
42333;DHT22;27984;51.476;5.702;2023-02-03T07:08:56;9.70;99.90
42333;DHT22;27984;51.476;5.702;2023-02-03T07:11:22;9.70;99.90
42333;DHT22;27984;51.476;5.702;2023-02-03T07:13:48;9.70;99.90
42333;DHT22;27984;51.476;5.702;2023-02-03T07:16:13;9.70;99.90
42333;DHT22;27984;51.476;5.702;2023-02-03T07:18:39;9.80;99.90
42333;DHT22;27984;51.476;5.702;2023-02-03T07:21:05;9.80;99.90
42333;DHT22;27984;51.476;5.702;2023-02-03T07:23:32;9.80;99.90
42333;DHT22;27984;51.476;5.702;2023-02-03T07:26:05;9.80;99.90
42333;DHT22;27984;51.476;5.702;2023-02-03T07:28:31;9.80;99.90
42333;DHT22;27984;51.476;5.702;2023-02-03T07:30:57;9.80;99.90
42333;DHT22;27984;51.476;5.702;2023-02-03T07:33:24;9.80;99.90
42333;DHT22;27984;51.476;5.702;2023-02-03T07:35:53;9.80;99.90
42333;DHT22;27984;51.476;5.702;2023-02-03T07:38:20;9.80;99.90
42333;DHT22;27984;51.476;5.702;2023-02-03T07:40:45;9.80;99.90
42333;DHT22;27984;51.476;5.702;2023-02-03T07:43:11;9.80;99.90
42333;DHT22;27984;51.476;5.702;2023-02-03T07:45:39;9.80;99.90
42333;DHT22;27984;51.476;5.702;2023-02-03T07:48:04;9.80;99.90
42333;DHT22;27984;51.476;5.702;2023-02-03T07:50:30;9.80;99.90
42333;DHT22;27984;51.476;5.702;2023-02-03T07:52:58;9.80;99.90
42333;DHT22;27984;51.476;5.702;2023-02-03T07:55:23;9.80;99.90
42333;DHT22;27984;51.476;5.702;2023-02-03T07:57:49;9.80;99.90
42333;DHT22;27984;51.476;5.702;2023-02-03T08:00:15;9.80;99.90
42333;DHT22;27984;51.476;5.702;2023-02-03T08:02:42;9.80;99.90
42333;DHT22;27984;51.476;5.702;2023-02-03T08:05:09;9.80;99.90
42333;DHT22;27984;51.476;5.702;2023-02-03T08:07:35;9.90;99.90
42333;DHT22;27984;51.476;5.702;2023-02-03T08:10:01;9.80;99.90
42333;DHT22;27984;51.476;5.702;2023-02-03T08:12:26;9.80;99.90
42333;DHT22;27984;51.476;5.702;2023-02-03T08:14:52;9.80;99.90
42333;DHT22;27984;51.476;5.702;2023-02-03T08:17:17;9.90;99.90
42333;DHT22;27984;51.476;5.702;2023-02-03T08:19:48;9.90;99.90
42333;DHT22;27984;51.476;5.702;2023-02-03T08:22:13;9.80;99.90
42333;DHT22;27984;51.476;5.702;2023-02-03T08:24:44;9.80;99.90
42333;DHT22;27984;51.476;5.702;2023-02-03T08:27:12;9.80;99.90
42333;DHT22;27984;51.476;5.702;2023-02-03T08:29:37;9.90;99.90
42333;DHT22;27984;51.476;5.702;2023-02-03T08:32:03;9.90;99.90
42333;DHT22;27984;51.476;5.702;2023-02-03T08:34:29;9.80;99.90
42333;DHT22;27984;51.476;5.702;2023-02-03T08:36:54;9.90;99.90
42333;DHT22;27984;51.476;5.702;2023-02-03T08:39:20;9.90;99.90
42333;DHT22;27984;51.476;5.702;2023-02-03T08:41:45;9.90;99.90
42333;DHT22;27984;51.476;5.702;2023-02-03T08:44:12;9.90;99.90
42333;DHT22;27984;51.476;5.702;2023-02-03T08:46:38;9.90;99.90
42333;DHT22;27984;51.476;5.702;2023-02-03T08:49:09;9.90;99.90
42333;DHT22;27984;51.476;5.702;2023-02-03T08:51:34;9.80;99.90
42333;DHT22;27984;51.476;5.702;2023-02-03T08:54:00;9.80;99.90
42333;DHT22;27984;51.476;5.702;2023-02-03T08:56:26;9.80;99.90
42333;DHT22;27984;51.476;5.702;2023-02-03T08:58:52;9.90;99.90
42333;DHT22;27984;51.476;5.702;2023-02-03T09:01:17;9.90;99.90
42333;DHT22;27984;51.476;5.702;2023-02-03T09:03:43;9.90;99.90
42333;DHT22;27984;51.476;5.702;2023-02-03T09:06:09;9.90;99.90
42333;DHT22;27984;51.476;5.702;2023-02-03T09:08:37;9.90;99.90
42333;DHT22;27984;51.476;5.702;2023-02-03T09:11:08;9.90;99.90
42333;DHT22;27984;51.476;5.702;2023-02-03T09:13:34;9.90;99.90
42333;DHT22;27984;51.476;5.702;2023-02-03T09:15:59;9.90;99.90
42333;DHT22;27984;51.476;5.702;2023-02-03T09:18:25;9.90;99.90
42333;DHT22;27984;51.476;5.702;2023-02-03T09:20:50;9.90;99.90
42333;DHT22;27984;51.476;5.702;2023-02-03T09:23:16;10.00;99.90
42333;DHT22;27984;51.476;5.702;2023-02-03T09:25:42;10.00;99.90
42333;DHT22;27984;51.476;5.702;2023-02-03T09:28:08;10.00;99.90
42333;DHT22;27984;51.476;5.702;2023-02-03T09:30:33;10.00;99.90
42333;DHT22;27984;51.476;5.702;2023-02-03T09:32:59;10.00;99.90
42333;DHT22;27984;51.476;5.702;2023-02-03T09:35:24;10.00;99.90
42333;DHT22;27984;51.476;5.702;2023-02-03T09:37:51;10.00;99.90
42333;DHT22;27984;51.476;5.702;2023-02-03T09:40:21;10.00;99.90
42333;DHT22;27984;51.476;5.702;2023-02-03T09:43:11;10.10;99.90
42333;DHT22;27984;51.476;5.702;2023-02-03T09:45:40;10.10;99.90
42333;DHT22;27984;51.476;5.702;2023-02-03T09:48:13;10.10;99.90
42333;DHT22;27984;51.476;5.702;2023-02-03T09:50:42;10.20;99.90
42333;DHT22;27984;51.476;5.702;2023-02-03T09:53:26;10.20;99.90
42333;DHT22;27984;51.476;5.702;2023-02-03T09:55:53;10.20;99.90
42333;DHT22;27984;51.476;5.702;2023-02-03T09:58:19;10.20;99.90
42333;DHT22;27984;51.476;5.702;2023-02-03T10:00:50;10.20;99.90
42333;DHT22;27984;51.476;5.702;2023-02-03T10:03:27;10.20;99.90
42333;DHT22;27984;51.476;5.702;2023-02-03T10:11:36;10.30;99.90
42333;DHT22;27984;51.476;5.702;2023-02-03T10:17:42;10.40;99.90
42333;DHT22;27984;51.476;5.702;2023-02-03T10:20:17;10.60;99.90
42333;DHT22;27984;51.476;5.702;2023-02-03T10:22:50;10.60;99.90
42333;DHT22;27984;51.476;5.702;2023-02-03T10:25:25;10.60;99.90
42333;DHT22;27984;51.476;5.702;2023-02-03T10:27:58;10.70;99.90
42333;DHT22;27984;51.476;5.702;2023-02-03T10:30:27;10.70;99.90
42333;DHT22;27984;51.476;5.702;2023-02-03T10:33:16;10.60;99.90
42333;DHT22;27984;51.476;5.702;2023-02-03T10:35:48;10.60;99.90
42333;DHT22;27984;51.476;5.702;2023-02-03T10:40:56;10.60;99.90
42333;DHT22;27984;51.476;5.702;2023-02-03T10:43:22;10.60;99.90
42333;DHT22;27984;51.476;5.702;2023-02-03T10:46:06;10.70;99.90
42333;DHT22;27984;51.476;5.702;2023-02-03T10:48:31;10.80;99.90
42333;DHT22;27984;51.476;5.702;2023-02-03T10:50:57;10.80;99.90
42333;DHT22;27984;51.476;5.702;2023-02-03T10:53:26;10.90;99.90
42333;DHT22;27984;51.476;5.702;2023-02-03T10:56:09;10.90;99.90
42333;DHT22;27984;51.476;5.702;2023-02-03T10:58:37;11.00;99.90
42333;DHT22;27984;51.476;5.702;2023-02-03T11:03:31;11.00;99.90
42333;DHT22;27984;51.476;5.702;2023-02-03T11:06:05;11.00;99.90
42333;DHT22;27984;51.476;5.702;2023-02-03T11:08:33;10.90;99.90
42333;DHT22;27984;51.476;5.702;2023-02-03T11:11:05;10.90;99.90
42333;DHT22;27984;51.476;5.702;2023-02-03T11:13:31;10.90;99.90
42333;DHT22;27984;51.476;5.702;2023-02-03T11:16:05;10.90;99.90
42333;DHT22;27984;51.476;5.702;2023-02-03T11:19:24;10.90;99.90
42333;DHT22;27984;51.476;5.702;2023-02-03T11:26:48;11.00;99.90
42333;DHT22;27984;51.476;5.702;2023-02-03T11:29:23;10.90;99.90
42333;DHT22;27984;51.476;5.702;2023-02-03T11:31:51;10.90;99.90
42333;DHT22;27984;51.476;5.702;2023-02-03T11:34:29;10.90;99.90
42333;DHT22;27984;51.476;5.702;2023-02-03T11:36:55;10.90;99.90
42333;DHT22;27984;51.476;5.702;2023-02-03T11:39:29;10.90;99.90
42333;DHT22;27984;51.476;5.702;2023-02-03T11:42:00;11.00;99.90
42333;DHT22;27984;51.476;5.702;2023-02-03T11:44:28;10.90;99.90
42333;DHT22;27984;51.476;5.702;2023-02-03T11:47:06;11.00;99.90
42333;DHT22;27984;51.476;5.702;2023-02-03T11:50:22;11.00;99.90
42333;DHT22;27984;51.476;5.702;2023-02-03T11:52:56;11.00;99.90
42333;DHT22;27984;51.476;5.702;2023-02-03T11:55:39;11.00;99.90
42333;DHT22;27984;51.476;5.702;2023-02-03T11:58:35;11.10;99.90
42333;DHT22;27984;51.476;5.702;2023-02-03T12:01:10;11.00;99.90
42333;DHT22;27984;51.476;5.702;2023-02-03T12:03:54;11.00;99.90
42333;DHT22;27984;51.476;5.702;2023-02-03T12:12:20;11.10;99.90
42333;DHT22;27984;51.476;5.702;2023-02-03T12:23:40;11.20;99.90
42333;DHT22;27984;51.476;5.702;2023-02-03T12:32:00;11.20;99.90
42333;DHT22;27984;51.476;5.702;2023-02-03T12:35:04;11.20;99.90
42333;DHT22;27984;51.476;5.702;2023-02-03T12:37:41;11.40;99.90
42333;DHT22;27984;51.476;5.702;2023-02-03T12:40:22;11.40;99.90
42333;DHT22;27984;51.476;5.702;2023-02-03T12:42:58;11.40;99.90
42333;DHT22;27984;51.476;5.702;2023-02-03T12:45:33;11.40;99.90
42333;DHT22;27984;51.476;5.702;2023-02-03T12:48:05;11.40;99.90
42333;DHT22;27984;51.476;5.702;2023-02-03T12:50:36;11.30;99.90
42333;DHT22;27984;51.476;5.702;2023-02-03T12:53:08;11.30;99.90
42333;DHT22;27984;51.476;5.702;2023-02-03T12:55:51;11.40;99.90
42333;DHT22;27984;51.476;5.702;2023-02-03T12:58:51;11.50;99.90
42333;DHT22;27984;51.476;5.702;2023-02-03T13:01:23;11.40;99.90
42333;DHT22;27984;51.476;5.702;2023-02-03T13:04:05;11.50;99.90
42333;DHT22;27984;51.476;5.702;2023-02-03T13:09:40;11.50;99.90
42333;DHT22;27984;51.476;5.702;2023-02-03T13:14:43;11.60;99.90
42333;DHT22;27984;51.476;5.702;2023-02-03T13:20:05;11.70;99.90
42333;DHT22;27984;51.476;5.702;2023-02-03T13:22:38;11.90;99.90
42333;DHT22;27984;51.476;5.702;2023-02-03T13:25:26;11.90;99.90
42333;DHT22;27984;51.476;5.702;2023-02-03T13:31:16;11.90;99.90
42333;DHT22;27984;51.476;5.702;2023-02-03T13:36:51;12.00;99.90
42333;DHT22;27984;51.476;5.702;2023-02-03T13:39:29;12.00;99.90
42333;DHT22;27984;51.476;5.702;2023-02-03T13:42:32;12.10;99.90
42333;DHT22;27984;51.476;5.702;2023-02-03T13:45:39;12.00;99.90
42333;DHT22;27984;51.476;5.702;2023-02-03T13:48:19;12.00;99.90
42333;DHT22;27984;51.476;5.702;2023-02-03T13:50:48;11.90;99.90
42333;DHT22;27984;51.476;5.702;2023-02-03T13:53:20;11.90;99.90
42333;DHT22;27984;51.476;5.702;2023-02-03T13:55:55;11.80;99.90
42333;DHT22;27984;51.476;5.702;2023-02-03T13:58:30;11.80;99.90
42333;DHT22;27984;51.476;5.702;2023-02-03T14:03:50;11.60;99.90
42333;DHT22;27984;51.476;5.702;2023-02-03T14:09:00;11.60;99.90
42333;DHT22;27984;51.476;5.702;2023-02-03T14:12:38;11.70;99.90
42333;DHT22;27984;51.476;5.702;2023-02-03T14:20:30;11.60;99.90
42333;DHT22;27984;51.476;5.702;2023-02-03T14:23:04;11.50;99.90
42333;DHT22;27984;51.476;5.702;2023-02-03T14:25:46;11.60;99.90
42333;DHT22;27984;51.476;5.702;2023-02-03T14:28:22;11.60;99.90
42333;DHT22;27984;51.476;5.702;2023-02-03T14:31:13;11.60;99.90
42333;DHT22;27984;51.476;5.702;2023-02-03T14:34:03;11.60;99.90
42333;DHT22;27984;51.476;5.702;2023-02-03T14:36:41;11.60;99.90
42333;DHT22;27984;51.476;5.702;2023-02-03T14:52:54;11.10;99.90
42333;DHT22;27984;51.476;5.702;2023-02-03T14:58:33;11.10;99.90
42333;DHT22;27984;51.476;5.702;2023-02-03T15:01:03;10.90;99.90
42333;DHT22;27984;51.476;5.702;2023-02-03T15:03:29;10.80;99.90
42333;DHT22;27984;51.476;5.702;2023-02-03T15:05:58;10.60;99.90
42333;DHT22;27984;51.476;5.702;2023-02-03T15:10:58;10.40;99.90
42333;DHT22;27984;51.476;5.702;2023-02-03T15:13:30;10.30;99.90
42333;DHT22;27984;51.476;5.702;2023-02-03T15:16:01;10.20;99.90
42333;DHT22;27984;51.476;5.702;2023-02-03T15:18:34;10.20;99.90
42333;DHT22;27984;51.476;5.702;2023-02-03T15:21:05;10.10;99.90
42333;DHT22;27984;51.476;5.702;2023-02-03T15:23:40;10.00;99.90
42333;DHT22;27984;51.476;5.702;2023-02-03T15:26:26;9.90;99.90
42333;DHT22;27984;51.476;5.702;2023-02-03T15:28:58;9.70;99.90
42333;DHT22;27984;51.476;5.702;2023-02-03T15:31:36;9.60;99.90
42333;DHT22;27984;51.476;5.702;2023-02-03T15:34:22;9.60;99.90
42333;DHT22;27984;51.476;5.702;2023-02-03T15:36:51;9.60;99.90
42333;DHT22;27984;51.476;5.702;2023-02-03T15:39:42;9.50;99.90
42333;DHT22;27984;51.476;5.702;2023-02-03T15:42:31;9.50;99.90
42333;DHT22;27984;51.476;5.702;2023-02-03T15:45:04;9.50;99.90
42333;DHT22;27984;51.476;5.702;2023-02-03T15:47:32;9.50;99.90
42333;DHT22;27984;51.476;5.702;2023-02-03T15:50:14;9.50;99.90
42333;DHT22;27984;51.476;5.702;2023-02-03T15:52:48;9.50;99.90
42333;DHT22;27984;51.476;5.702;2023-02-03T15:55:37;9.50;99.90
42333;DHT22;27984;51.476;5.702;2023-02-03T15:58:16;9.50;99.90
42333;DHT22;27984;51.476;5.702;2023-02-03T16:00:50;9.50;99.90
42333;DHT22;27984;51.476;5.702;2023-02-03T16:04:01;9.60;99.90
42333;DHT22;27984;51.476;5.702;2023-02-03T16:06:15;9.50;99.90
42333;DHT22;27984;51.476;5.702;2023-02-03T16:08:46;9.50;99.90
42333;DHT22;27984;51.476;5.702;2023-02-03T16:11:42;9.50;99.90
42333;DHT22;27984;51.476;5.702;2023-02-03T16:14:32;9.60;99.90
42333;DHT22;27984;51.476;5.702;2023-02-03T16:16:58;9.60;99.90
42333;DHT22;27984;51.476;5.702;2023-02-03T16:19:26;9.50;99.90
42333;DHT22;27984;51.476;5.702;2023-02-03T16:21:55;9.50;99.90
42333;DHT22;27984;51.476;5.702;2023-02-03T16:24:38;9.50;99.90
42333;DHT22;27984;51.476;5.702;2023-02-03T16:29:50;9.50;99.90
42333;DHT22;27984;51.476;5.702;2023-02-03T16:32:35;9.50;99.90
42333;DHT22;27984;51.476;5.702;2023-02-03T16:35:19;9.50;99.90
42333;DHT22;27984;51.476;5.702;2023-02-03T16:38:13;9.50;99.90
42333;DHT22;27984;51.476;5.702;2023-02-03T16:40:57;9.50;99.90
42333;DHT22;27984;51.476;5.702;2023-02-03T16:43:41;9.50;99.90
42333;DHT22;27984;51.476;5.702;2023-02-03T16:46:25;9.50;99.90
42333;DHT22;27984;51.476;5.702;2023-02-03T16:49:09;9.50;99.90
42333;DHT22;27984;51.476;5.702;2023-02-03T16:51:53;9.40;99.90
42333;DHT22;27984;51.476;5.702;2023-02-03T16:54:19;9.40;99.90
42333;DHT22;27984;51.476;5.702;2023-02-03T16:56:44;9.40;99.90
42333;DHT22;27984;51.476;5.702;2023-02-03T16:59:10;9.40;99.90
42333;DHT22;27984;51.476;5.702;2023-02-03T17:01:36;9.40;99.90
42333;DHT22;27984;51.476;5.702;2023-02-03T17:04:02;9.40;99.90
42333;DHT22;27984;51.476;5.702;2023-02-03T17:06:28;9.40;99.90
42333;DHT22;27984;51.476;5.702;2023-02-03T17:08:55;9.40;99.90
42333;DHT22;27984;51.476;5.702;2023-02-03T17:11:22;9.40;99.90
42333;DHT22;27984;51.476;5.702;2023-02-03T17:13:48;9.40;99.90
42333;DHT22;27984;51.476;5.702;2023-02-03T17:16:22;9.40;99.90
42333;DHT22;27984;51.476;5.702;2023-02-03T17:18:48;9.40;99.90
42333;DHT22;27984;51.476;5.702;2023-02-03T17:21:24;9.50;99.90
42333;DHT22;27984;51.476;5.702;2023-02-03T17:23:50;9.50;99.90
42333;DHT22;27984;51.476;5.702;2023-02-03T17:26:15;9.50;99.90
42333;DHT22;27984;51.476;5.702;2023-02-03T17:28:41;9.40;99.90
42333;DHT22;27984;51.476;5.702;2023-02-03T17:31:12;9.50;99.90
42333;DHT22;27984;51.476;5.702;2023-02-03T17:33:38;9.60;99.90
42333;DHT22;27984;51.476;5.702;2023-02-03T17:36:05;9.50;99.90
42333;DHT22;27984;51.476;5.702;2023-02-03T17:38:38;9.60;99.90
42333;DHT22;27984;51.476;5.702;2023-02-03T17:41:12;9.60;99.90
42333;DHT22;27984;51.476;5.702;2023-02-03T17:43:38;9.60;99.90
42333;DHT22;27984;51.476;5.702;2023-02-03T17:46:05;9.60;99.90
42333;DHT22;27984;51.476;5.702;2023-02-03T17:48:31;9.60;99.90